Cut Bank Municipal Airport Cut Bank US
ICAO: KCTB
IATA: CTB
Category: Medium
Scheduled Services: No

Elevation: 3854 ft
TransAlt. 18000 ft.

Airport Communications:
SALT LAKE CITY CNTR:133.4
ASOS:119.025
GREAT FALLS RDO:122.2
CTAF/UNICOM:122.8

KCTB Zoom In..

Runways:

(A) RW 05 length 5302 ft width 75 ft
---- / hdg 47

(B) RW 13 length 5300 ft width 75 ft
---- / hdg 135

(C) RW 23 length 5302 ft width 75 ft
---- / hdg 227

(D) RW 31 length 5300 ft width 75 ft
---- / hdg 315

Location; KCTB
Day. 27 / Time. 07.56 Zulu
* Altimeter: 29.93
* Temperature: 03° c. 37.4°f.
* Wind from: 250° Speed 31 kn with Gusts up to 38 kn.
Dewpoint: -06° c.
Visibility: 10 Statute Miles.
Clouds: Clear (automated report).

KCTB 270756Z AUTO 25031G38KT 10SM CLR 03/M06 A2993 RMK AO2 PK WND 25047/0711 SLP154 T00281056

Going to: --> -->


Wind From 250°
Speed 31 kn.

 
 
jpsmedia worldairports.se 2020   terms of use